• Join FlightAware (Why Join?)
  • Login
  • US Flag 
02:14AM EDT


 

Airport Tracker/Info


-or-


 

Live Flight TrackerFlight Track Log ✈ N8957N ✈ 21 de Oct de 2013 ✈ KSEG - KCDI

Flight Track Log - Related Links

Times and Time Zones

All times are in EDT time to prevent confusion due to time zone crossing. See the N8957N flight status page for this flight to view local times or setup timezone preferences in your user account.

Time Position Orientation Groundspeed Altitude Reporting Facility
EDT Latitude Longitude Course Direction KTS MPH feet Rate Location/Type
01:14PM 40.6969 -76.7656 256° West 127 146 4,600  Level New York Center
01:15PM 40.6928 -76.8092 263° West 127 146 4,700  Climbing New York Center
01:16PM 40.7971 -77.0172 260° West  Level Estimated
01:16PM 40.6883 -76.8553 263° West 127 146 4,700  Level New York Center
01:17PM 40.7902 -77.0552 257° West  Level FlightAware Approximate
01:17PM 40.6839 -76.9014 263° West 127 146 4,600  Level New York Center
01:18PM 40.7833 -77.0932 257° West  Level FlightAware Approximate
01:18PM 40.6794 -76.9475 263° West 122 140 4,600  Level New York Center
01:19PM 40.7764 -77.1312 257° West  Level FlightAware Approximate
01:19PM 40.6753 -76.9853 262° West 122 140 4,600  Level New York Center
01:20PM 40.7695 -77.1691 256° West  Level FlightAware Approximate
01:20PM 40.6686 -77.0342 260° West 128 147 4,500  Level New York Center
01:21PM 40.6642 -77.0775 262° West 128 147 4,500  Level New York Center
01:22PM 40.6597 -77.1208 262° West 121 139 4,500 -60 Level New York Center
01:23PM 40.6553 -77.1642 262° West 121 139 4,400 -120 Descending New York Center
01:24PM 40.6489 -77.2075 259° West 121 139 4,300  Descending New York Center
01:25PM 40.6444 -77.2508 262° West 121 139 4,400  Climbing New York Center
01:26PM 40.6378 -77.2967 259° West 121 139 4,400 -60 Level New York Center
01:27PM 40.6292 -77.3397 255° West 121 139 4,300  Descending New York Center
01:28PM 40.6203 -77.3825 255° West 126 145 4,400  Climbing New York Center
01:29PM 40.6139 -77.4256 259° West 126 145 4,300  Descending New York Center
01:30PM 40.6092 -77.4689 262° West 126 145 4,500  Climbing New York Center
01:31PM 40.6028 -77.5119 259° West 126 145 4,400  Descending New York Center
01:32PM 40.5939 -77.5550 255° West 126 145 4,500  Climbing New York Center
01:33PM 40.5869 -77.6036 259° West 126 145 4,500 -60 Level New York Center
01:34PM 40.5806 -77.6439 258° West 126 145 4,400  Descending New York Center
01:36PM 40.5711 -77.7167 260° West 121 139 4,500  Climbing Cleveland Center
01:37PM 40.5631 -77.7675 258° West 119 137 4,500  Level Cleveland Center
01:38PM 40.5561 -77.8094 258° West 119 137 4,500  Level Cleveland Center
01:39PM 40.5483 -77.8519 256° West 119 137 4,600  Climbing Cleveland Center
01:40PM 40.5392 -77.8958 255° West 121 139 4,500 -120 Descending Cleveland Center
01:40PM 40.5386 -77.8953 143° Southeast 122 140 4,500  Level Cleveland Center
01:41PM 40.5297 -77.9422 256° West 125 144 4,500  Level Cleveland Center
01:41PM 40.5289 -77.9433 225° Southwest 128 147 4,500  Level Cleveland Center
01:42PM 40.5208 -77.9883 257° West 128 147 4,500 -60 Level Cleveland Center
01:43PM 40.5117 -78.0344 255° West 127 146 4,400 -120 Descending Cleveland Center
01:43PM 40.5117 -78.0411 270° West 127 146 4,400 60 Level Cleveland Center
01:44PM 40.5019 -78.0828 253° West 121 139 4,500 60 Climbing Cleveland Center
01:44PM 40.5033 -78.0833 343° North 124 143 4,500 60 Level Cleveland Center
01:46PM 40.4958 -78.1258 257° West 122 140 4,600  Climbing Cleveland Center
01:47PM 40.4886 -78.1686 257° West 121 139 4,500  Descending Cleveland Center
01:47PM 40.4792 -78.2169 256° West 128 147 4,600 60 Climbing Cleveland Center
01:48PM 40.4819 -78.2144 34° Northeast 123 142 4,600 -120 Level Cleveland Center
01:48PM 40.4736 -78.2628 257° West 127 146 4,500  Descending Cleveland Center
01:49PM 40.4736 -78.2683 270° West 125 144 4,600 60 Climbing Cleveland Center
01:49PM 40.4664 -78.3031 255° West 125 144 4,600  Level Cleveland Center
01:50PM 40.4656 -78.3125 263° West 126 145 4,600  Level Cleveland Center
01:50PM 40.4592 -78.3461 256° West 121 139 4,600  Level Cleveland Center
01:51PM 40.4586 -78.3561 266° West 124 143 4,600 60 Level Cleveland Center
01:52PM 40.4508 -78.4025 258° West 126 145 4,700 60 Climbing Cleveland Center
01:52PM 40.4461 -78.4319 258° West 128 147 4,700  Level Cleveland Center
01:53PM 40.4453 -78.4500 267° West 131 151 4,700 -120 Level Cleveland Center
01:53PM 40.4403 -78.4806 258° West 127 146 4,600 -120 Descending Cleveland Center
01:54PM 40.4397 -78.4956 267° West 128 147 4,600 180 Level Cleveland Center
01:54PM 40.4367 -78.5269 263° West 128 147 4,800 360 Climbing Cleveland Center
01:55PM 40.4350 -78.5500 265° West 127 146 5,000 240 Climbing Cleveland Center
01:55PM 40.4314 -78.5700 257° West 123 142 5,100 480 Climbing Cleveland Center
01:56PM 40.4308 -78.5933 268° West 122 140 5,500 660 Climbing Cleveland Center
01:56PM 40.4281 -78.6133 260° West 115 132 5,800 360 Climbing Cleveland Center
01:57PM 40.4278 -78.6336 269° West 114 131 5,900 360 Climbing Cleveland Center
01:57PM 40.4228 -78.6539 252° West 108 124 6,200 480 Climbing Cleveland Center
01:58PM 40.4225 -78.6717 269° West 109 125 6,400 360 Climbing Cleveland Center
01:58PM 40.4178 -78.6889 250° West 98 113 6,600 240 Climbing Cleveland Center
01:59PM 40.4178 -78.7072 270° West 102 117 6,700 60 Climbing Cleveland Center
01:59PM 40.4125 -78.7292 252° West 107 123 6,700 -120 Level Cleveland Center
02:00PM 40.4097 -78.7569 263° West 114 131 6,600 -120 Descending Cleveland Center
02:00PM 40.4067 -78.7750 257° West 128 147 6,600 -240 Level Cleveland Center
02:01PM 40.4039 -78.8036 263° West 128 147 6,400 -120 Descending Cleveland Center
02:01PM 40.3989 -78.8206 249° West 133 153 6,500 60 Climbing Cleveland Center
02:02PM 40.3969 -78.8506 265° West 131 151 6,500  Level Cleveland Center
02:02PM 40.3911 -78.8661 244° Southwest 128 147 6,500  Level Cleveland Center
02:03PM 40.3892 -78.8944 265° West 127 146 6,500 -120 Level Cleveland Center
02:03PM 40.3833 -78.9089 242° Southwest 125 144 6,400  Descending Cleveland Center
02:04PM 40.3800 -78.9378 261° West 125 144 6,500 60 Climbing Cleveland Center
02:04PM 40.3731 -78.9594 247° West 131 151 6,500 60 Level Cleveland Center
02:05PM 40.3703 -78.9903 263° West 124 143 6,600 60 Climbing Cleveland Center
02:05PM 40.3675 -79.0028 254° West 126 145 6,600  Level Cleveland Center
02:06PM 40.3639 -79.0333 261° West 123 142 6,600  Level Cleveland Center
02:06PM 40.3594 -79.0481 248° West 122 140 6,600  Level Cleveland Center
02:07PM 40.3539 -79.0911 260° West 122 140 6,600 -60 Level Cleveland Center
02:08PM 40.3486 -79.1206 257° West 122 140 6,500  Descending Cleveland Center
02:08PM 40.3458 -79.1367 257° West 123 142 6,600  Climbing Cleveland Center
02:09PM 40.3422 -79.1642 260° West 122 140 6,500 -180 Descending Cleveland Center
02:10PM 40.3378 -79.1822 252° West 120 138 6,400 -120 Descending Cleveland Center
02:10PM 40.3364 -79.2072 266° West 122 140 6,400  Level Cleveland Center
02:11PM 40.3314 -79.2361 257° West 118 136 6,400 60 Level Cleveland Center
02:11PM 40.3294 -79.2569 263° West 119 137 6,500 60 Climbing Cleveland Center
02:12PM 40.3258 -79.2764 256° West 118 136 6,500 60 Level Cleveland Center
02:12PM 40.3250 -79.3006 267° West 118 136 6,600 60 Climbing Cleveland Center
02:13PM 40.3203 -79.3167 249° West 114 131 6,600  Level Cleveland Center
02:13PM 40.3200 -79.3422 269° West 113 130 6,600 60 Level Cleveland Center
02:14PM 40.3144 -79.3622 250° West 116 133 6,700 -120 Climbing Cleveland Center
02:14PM 40.3142 -79.3847 269° West 117 135 6,500  Descending Cleveland Center
02:15PM 40.3089 -79.4025 249° West 119 137 6,700 60 Climbing Cleveland Center
02:15PM 40.3089 -79.4269 270° West 117 135 6,600 -120 Descending Cleveland Center
02:16PM 40.3031 -79.4456 248° West 117 135 6,600  Level Cleveland Center
02:17PM 40.3025 -79.4703 268° West 119 137 6,600  Level Cleveland Center
02:17PM 40.2972 -79.4886 249° West 120 138 6,600 -120 Level Cleveland Center
02:18PM 40.2975 -79.5214 271° West 118 136 6,500 -120 Descending Cleveland Center
02:19PM 40.2911 -79.5625 258° West 115 132 6,400 -60 Descending Cleveland Center
02:20PM 40.2861 -79.6061 261° West 119 137 6,400  Level Cleveland Center
02:21PM 40.2800 -79.6481 259° West 118 136 6,400  Level Cleveland Center
02:22PM 40.2742 -79.6908 260° West 118 136 6,400  Level Cleveland Center
02:23PM 40.2678 -79.7322 259° West 116 133 6,400  Level Cleveland Center
02:24PM 40.2608 -79.7731 257° West 115 132 6,400  Level Cleveland Center
02:25PM 40.2550 -79.8214 261° West 113 130 6,500  Climbing Cleveland Center
02:26PM 40.2492 -79.8628 260° West 115 132 6,500  Level Cleveland Center
02:27PM 40.2444 -79.9044 262° West 115 132 6,600  Climbing Cleveland Center
02:28PM 40.2400 -79.9456 262° West 114 131 6,500  Descending Cleveland Center
02:29PM 40.2350 -79.9869 261° West 115 132 6,600  Climbing Cleveland Center
02:30PM 40.2306 -80.0283 262° West 114 131 6,600 -60 Level Cleveland Center
02:31PM 40.2178 -80.0756 251° West 115 132 6,500  Descending Cleveland Center
02:32PM 40.2094 -80.1153 255° West 113 130 6,600 -60 Climbing Cleveland Center
02:33PM 40.2044 -80.1567 261° West 114 131 6,400 -240 Descending Cleveland Center
02:34PM 40.2003 -80.1981 263° West 115 132 6,200 -60 Descending Cleveland Center
02:35PM 40.1942 -80.2394 259° West 115 132 6,300 60 Climbing Cleveland Center
02:36PM 40.1858 -80.2783 254° West 112 129 6,400 -60 Climbing Cleveland Center
02:37PM 40.1778 -80.3181 255° West 112 129 6,200 -360 Descending Cleveland Center
02:38PM 40.1692 -80.3711 258° West 121 139 5,700 -300 Descending Cleveland Center
02:39PM 40.1611 -80.4150 257° West 123 142 5,600 -240 Descending Cleveland Center
02:40PM 40.1533 -80.4597 257° West 124 143 5,300 -300 Descending Cleveland Center
02:41PM 40.1436 -80.5067 255° West 129 148 5,000 -300 Descending Cleveland Center
02:42PM 40.1358 -80.5528 258° West 130 150 4,800 -300 Descending Cleveland Center
02:43PM 40.1272 -80.6017 257° West 134 154 4,500 -180 Descending Cleveland Center
02:44PM 40.1161 -80.6581 256° West 135 155 4,500 -60 Level Cleveland Center
02:45PM 40.1058 -80.7047 254° West 134 154 4,400  Descending Cleveland Center
02:47PM 40.0978 -80.7514 257° West 133 153 4,500  Climbing Cleveland Center
02:48PM 40.0900 -80.7978 258° West 131 151 4,400 -120 Descending Cleveland Center
02:49PM 40.0806 -80.8425 255° West 130 150 4,300  Descending Cleveland Center
02:50PM 40.0717 -80.8869 255° West 129 148 4,400 60 Climbing Cleveland Center
02:51PM 40.0644 -80.9369 259° West 122 140 4,500 60 Climbing Cleveland Center
02:52PM 40.0581 -80.9786 259° West 119 137 4,600  Climbing Cleveland Center
02:53PM 40.0517 -81.0206 259° West 118 136 4,500  Descending Cleveland Center
02:54PM 40.0442 -81.0636 257° West 119 137 4,600  Climbing Cleveland Center
02:55PM 40.0372 -81.1058 258° West 120 138 4,600  Level Cleveland Center
02:56PM 40.0289 -81.1575 258° West 121 139 4,600  Level Cleveland Center
02:57PM 40.0222 -81.2019 259° West 123 142 4,700 -60 Climbing Cleveland Center
02:58PM 40.0167 -81.2372 258° West 123 142 4,500 -240 Descending Indianapolis Center
02:59PM 40.0092 -81.2814 258° West 125 144 4,300 -180 Descending Indianapolis Center
03:00PM 40.0014 -81.3331 259° West 123 142 4,200  Descending Indianapolis Center
03:01PM 39.9944 -81.3767 258° West 122 140 4,400 120 Climbing Indianapolis Center
03:02PM 39.9875 -81.4194 258° West 121 139 4,500  Climbing Indianapolis Center
03:03PM 39.9806 -81.4614 258° West 120 138 4,500 -60 Level Indianapolis Center
03:04PM 39.9736 -81.5036 258° West 120 138 4,400  Descending Indianapolis Center
03:05PM 39.9678 -81.5469 260° West 120 138 4,500 -60 Climbing Indianapolis Center
03:06PM 39.9600 -81.5989 259° West 121 139 4,300 -60 Descending Indianapolis Center
03:07PM 39.9528 -81.6444 258° West 125 144 4,400 60 Climbing Indianapolis Center
03:08PM 39.9417 -81.6944 254° West 134 154 4,500 60 Climbing Indianapolis Center
03:09PM 39.9389 -81.7383 265° West 127 146 4,600  Climbing Indianapolis Center
03:11PM 39.9283 -81.8103 259° West 119 137 4,500 -120 Descending Indianapolis Center
03:12PM 39.9217 -81.8608 260° West 117 135 4,400 -60 Descending Indianapolis Center
03:13PM 39.9128 -81.9017 254° West 118 136 4,400  Level Indianapolis Center
03:14PM 39.9042 -81.9447 255° West 120 138 4,400  Level Indianapolis Center
03:15PM 39.8972 -81.9878 258° West 121 139 4,400  Level Indianapolis Center
03:16PM 39.8892 -82.0281 255° West 126 145 4,400  Level Indianapolis Center
03:16PM 39.8886 -82.0319 259° West 123 142 4,400 -120 Level Indianapolis Center
03:17PM 39.8789 -82.0728 253° West 123 142 4,300 -120 Descending Indianapolis Center
03:17PM 39.8781 -82.0839 264° West 124 143 4,300 120 Level Indianapolis Center
03:18PM 39.8700 -82.1261 256° West 121 139 4,500 60 Climbing Indianapolis Center
03:19PM 39.8650 -82.1578 258° West 119 137 4,500 60 Level Indianapolis Center
03:19PM 39.8642 -82.1678 264° West 119 137 4,600  Climbing Indianapolis Center
03:20PM 39.8569 -82.2031 255° West 118 136 4,500 -120 Descending Indianapolis Center
03:20PM 39.8575 -82.2108 275° West 119 137 4,500 -120 Level Indianapolis Center
03:21PM 39.8486 -82.2481 253° West 138 159 4,400 -120 Descending Indianapolis Center
03:21PM 39.8483 -82.2539 266° West 122 140 4,400 60 Level Indianapolis Center
03:22PM 39.8417 -82.2972 259° West 123 142 4,500  Climbing Indianapolis Center
03:23PM 39.8353 -82.3492 261° West 123 142 4,400 -120 Descending Indianapolis Center
03:24PM 39.8281 -82.3839 255° West 121 139 4,300 -240 Descending Indianapolis Center
03:24PM 39.8275 -82.3900 263° West 120 138 4,200 -240 Descending Indianapolis Center
03:25PM 39.8222 -82.4264 259° West 120 138 4,100 -120 Descending Indianapolis Center
03:25PM 39.8200 -82.4336 248° West 121 139 4,100 60 Level Indianapolis Center
03:26PM 39.8119 -82.4683 253° West 125 144 4,200 60 Climbing Indianapolis Center
03:26PM 39.8111 -82.4772 263° West 122 140 4,200 -300 Level Indianapolis Center
03:27PM 39.8036 -82.5161 256° West 134 154 3,900 -300 Descending Indianapolis Center
03:27PM 39.8033 -82.5206 265° West 123 142 3,900 -180 Level Indianapolis Center
03:29PM 39.7956 -82.5639 257° West 123 142 3,700 -120 Descending Indianapolis Center
03:30PM 39.7861 -82.6161 257° West 125 144 3,700  Level Indianapolis Center
03:32PM 39.7500 -82.6500 270° West  Level FlightAware Approximate
03:39PM 39.8029 -82.4026 270° West  Level Estimated
03:40PM 39.8104 -82.3672 270° West  Level Estimated
03:41PM 39.8180 -82.3319 270° West  Level Estimated
03:42PM 39.8254 -82.2965 270° West  Level Estimated
03:43PM 39.8329 -82.2611 270° West  Level Estimated
03:44PM 39.8404 -82.2257 270° West  Level Estimated
03:45PM 39.8479 -82.1903 270° West  Level Estimated
03:46PM 39.8553 -82.1549 270° West  Level Estimated
03:47PM 39.8627 -82.1194 270° West  Level Estimated
03:48PM 39.8702 -82.0840 270° West  Level Estimated
03:49PM 39.8776 -82.0486 270° West  Level Estimated
03:50PM 39.8850 -82.0131 270° West  Level Estimated
03:51PM 39.8924 -81.9777 270° West  Level Estimated
03:52PM 39.8998 -81.9422 270° West  Level Estimated
03:53PM 39.9072 -81.9067 270° West  Level Estimated